createdAt,value
2018-06-29T00:02:01.913Z,21.00
2018-06-29T00:04:32.290Z,20.90
2018-06-29T00:07:03.447Z,21.00
2018-06-29T00:09:33.836Z,20.90
2018-06-29T00:12:04.211Z,21.00
2018-06-29T00:14:41.933Z,21.10
2018-06-29T00:17:12.311Z,21.10
2018-06-29T00:19:42.702Z,21.10
2018-06-29T00:22:13.382Z,21.00
2018-06-29T00:24:43.758Z,20.90
2018-06-29T00:27:14.135Z,20.80
2018-06-29T00:29:44.541Z,20.80
2018-06-29T00:32:15.683Z,20.80
2018-06-29T00:34:46.758Z,20.80
2018-06-29T00:37:19.203Z,20.80
2018-06-29T00:39:49.586Z,20.70
2018-06-29T00:42:19.954Z,20.70
2018-06-29T00:47:38.286Z,20.80
2018-06-29T00:50:08.676Z,20.60
2018-06-29T00:52:39.054Z,20.70
2018-06-29T00:55:09.429Z,20.50
2018-06-29T00:57:39.821Z,20.50
2018-06-29T01:00:13.385Z,20.40
2018-06-29T01:02:43.774Z,20.40
2018-06-29T01:05:14.144Z,20.50
2018-06-29T01:07:44.455Z,20.50
2018-06-29T01:10:14.853Z,20.40
2018-06-29T01:12:45.221Z,20.30
2018-06-29T01:15:15.618Z,20.40
2018-06-29T01:17:46.016Z,20.50
2018-06-29T01:20:16.388Z,20.50
2018-06-29T01:22:46.760Z,20.40
2018-06-29T01:25:17.143Z,20.70
2018-06-29T01:27:47.510Z,20.60
2018-06-29T01:30:17.881Z,20.50
2018-06-29T01:32:48.217Z,20.30
2018-06-29T01:35:18.591Z,20.40
2018-06-29T01:37:49.612Z,20.50
2018-06-29T01:40:20.024Z,20.40
2018-06-29T01:42:50.425Z,20.20
2018-06-29T01:45:20.805Z,20.20
2018-06-29T01:47:51.205Z,20.20
2018-06-29T01:50:21.578Z,20.10
2018-06-29T01:52:51.953Z,20.10
2018-06-29T01:55:22.364Z,20.20
2018-06-29T01:57:55.724Z,20.10
2018-06-29T02:00:26.105Z,20.30
2018-06-29T02:02:56.495Z,20.20
2018-06-29T02:05:26.810Z,20.10
2018-06-29T02:07:57.201Z,20.10
2018-06-29T02:10:27.514Z,20.10
2018-06-29T02:12:57.881Z,20.00
2018-06-29T02:15:28.244Z,20.10
2018-06-29T02:17:58.644Z,20.10
2018-06-29T02:20:29.028Z,19.90
2018-06-29T02:22:59.399Z,20.00
2018-06-29T02:25:29.968Z,20.10
2018-06-29T02:28:00.333Z,20.00
2018-06-29T02:30:31.547Z,19.90
2018-06-29T02:33:02.634Z,19.90
2018-06-29T02:35:33.008Z,19.90
2018-06-29T02:38:04.406Z,19.90
2018-06-29T02:40:34.813Z,19.80
2018-06-29T02:43:05.885Z,19.70
2018-06-29T02:45:36.245Z,19.70
2018-06-29T02:48:06.644Z,19.80
2018-06-29T02:50:37.021Z,19.70
2018-06-29T02:53:07.397Z,20.00
2018-06-29T02:55:37.817Z,19.60
2018-06-29T02:58:08.186Z,19.50
2018-06-29T03:00:38.551Z,19.80
2018-06-29T03:03:09.648Z,19.80
2018-06-29T03:05:40.007Z,19.80
2018-06-29T03:08:10.376Z,19.70
2018-06-29T03:10:44.897Z,19.60
2018-06-29T03:13:17.318Z,19.70
2018-06-29T03:15:47.698Z,19.60
2018-06-29T03:18:18.092Z,19.50
2018-06-29T03:20:49.227Z,19.50
2018-06-29T03:23:19.588Z,19.50
2018-06-29T03:25:50.170Z,19.60
2018-06-29T03:28:20.553Z,19.60
2018-06-29T03:30:52.974Z,19.70
2018-06-29T03:33:23.371Z,19.70
2018-06-29T03:36:15.158Z,19.50
2018-06-29T03:38:45.552Z,19.60
2018-06-29T03:41:15.936Z,19.50
2018-06-29T03:43:48.353Z,19.50
2018-06-29T03:46:18.750Z,19.40
2018-06-29T03:49:09.509Z,19.50
2018-06-29T03:51:40.673Z,19.50
2018-06-29T03:54:11.041Z,19.50
2018-06-29T03:56:41.398Z,19.50
2018-06-29T03:59:12.545Z,19.30
2018-06-29T04:01:43.666Z,19.30
2018-06-29T04:04:14.044Z,19.30
2018-06-29T04:06:44.442Z,19.50
2018-06-29T04:09:14.818Z,19.40
2018-06-29T04:11:49.333Z,19.30
2018-06-29T04:14:22.494Z,19.20
2018-06-29T04:16:53.631Z,19.30
2018-06-29T04:19:25.727Z,19.30
2018-06-29T04:21:58.181Z,19.40
2018-06-29T04:24:29.584Z,19.30
2018-06-29T04:27:00.637Z,19.30
2018-06-29T04:29:31.035Z,19.30
2018-06-29T04:32:01.405Z,19.40
2018-06-29T04:34:32.548Z,19.50
2018-06-29T04:37:03.721Z,19.40
2018-06-29T04:39:34.088Z,19.40
2018-06-29T04:42:04.400Z,19.50
2018-06-29T04:44:36.846Z,19.50
2018-06-29T04:47:07.230Z,19.50
2018-06-29T04:49:37.543Z,19.50
2018-06-29T04:52:07.939Z,19.50
2018-06-29T04:54:43.375Z,19.60
2018-06-29T05:00:03.010Z,19.60
2018-06-29T05:02:33.402Z,19.40
2018-06-29T05:05:03.719Z,19.50
2018-06-29T05:07:34.080Z,19.50
2018-06-29T05:10:04.662Z,19.50
2018-06-29T05:12:35.043Z,19.60
2018-06-29T05:15:05.426Z,19.60
2018-06-29T05:17:35.824Z,19.70
2018-06-29T05:20:06.953Z,19.90
2018-06-29T05:22:37.329Z,19.90
2018-06-29T05:25:07.733Z,19.80
2018-06-29T05:27:38.886Z,19.90
2018-06-29T05:30:09.261Z,19.90
2018-06-29T05:32:39.675Z,19.90
2018-06-29T05:35:33.432Z,19.90
2018-06-29T05:38:03.843Z,19.80
2018-06-29T05:40:34.850Z,19.90
2018-06-29T05:43:05.163Z,20.00
2018-06-29T05:45:35.554Z,19.90
2018-06-29T05:48:05.934Z,20.10
2018-06-29T05:50:36.245Z,20.00
2018-06-29T05:53:06.709Z,20.20
2018-06-29T05:55:37.026Z,20.20
2018-06-29T05:58:08.172Z,20.50
2018-06-29T06:00:39.280Z,20.50
2018-06-29T06:03:09.656Z,20.50
2018-06-29T06:05:40.021Z,20.50
2018-06-29T06:08:10.430Z,20.40
2018-06-29T06:10:45.923Z,20.60
2018-06-29T06:13:17.094Z,20.70
2018-06-29T06:15:47.461Z,20.60
2018-06-29T06:18:39.340Z,20.50
2018-06-29T06:21:10.414Z,20.80
2018-06-29T06:23:42.839Z,20.70
2018-06-29T06:26:13.216Z,21.00
2018-06-29T06:28:45.870Z,21.10
2018-06-29T06:31:16.243Z,20.90
2018-06-29T06:33:46.821Z,20.90
2018-06-29T06:36:17.185Z,21.20
2018-06-29T06:38:47.558Z,21.50
2018-06-29T06:41:17.953Z,21.70
2018-06-29T06:43:48.337Z,21.80
2018-06-29T06:46:19.445Z,22.10
2018-06-29T06:48:49.845Z,21.80
2018-06-29T06:51:20.221Z,21.90
2018-06-29T06:53:51.369Z,22.20
2018-06-29T06:56:21.762Z,22.20
2018-06-29T06:58:52.139Z,22.10
2018-06-29T07:01:22.514Z,22.30
2018-06-29T07:03:52.923Z,22.70
2018-06-29T07:06:23.299Z,22.50
2018-06-29T07:08:54.439Z,22.30
2018-06-29T07:11:25.605Z,22.20
2018-06-29T07:13:55.982Z,22.20
2018-06-29T07:16:26.364Z,22.00
2018-06-29T07:18:56.752Z,21.70
2018-06-29T07:21:27.900Z,22.10
2018-06-29T07:23:59.043Z,22.00
2018-06-29T07:26:30.203Z,22.40
2018-06-29T07:29:00.582Z,22.40
2018-06-29T07:31:30.953Z,22.70
2018-06-29T07:34:02.120Z,23.20
2018-06-29T07:36:33.210Z,23.10
2018-06-29T07:39:03.579Z,23.20
2018-06-29T07:41:33.967Z,23.30
2018-06-29T07:44:04.341Z,23.30
2018-06-29T07:46:34.716Z,23.30
2018-06-29T07:49:07.097Z,23.50
2018-06-29T07:51:37.478Z,23.60
2018-06-29T07:54:26.968Z,23.50
2018-06-29T07:56:57.346Z,23.60
2018-06-29T07:59:28.477Z,23.80
2018-06-29T08:01:59.646Z,23.80
2018-06-29T08:04:30.002Z,23.80
2018-06-29T08:07:20.788Z,23.80
2018-06-29T08:09:51.172Z,23.80
2018-06-29T08:12:21.535Z,24.00
2018-06-29T08:14:51.932Z,24.10
2018-06-29T08:17:23.006Z,24.00
2018-06-29T08:19:53.385Z,23.90
2018-06-29T08:22:23.778Z,24.10
2018-06-29T08:25:04.394Z,24.30
2018-06-29T08:27:35.821Z,24.40
2018-06-29T08:30:06.389Z,24.40
2018-06-29T08:32:37.534Z,24.50
2018-06-29T08:35:08.687Z,24.50
2018-06-29T08:37:39.079Z,24.50
2018-06-29T08:40:10.227Z,24.60
2018-06-29T08:42:40.562Z,24.70
2018-06-29T08:45:11.708Z,25.00
2018-06-29T08:47:42.077Z,25.00
2018-06-29T08:50:19.733Z,24.90
2018-06-29T08:52:50.877Z,24.90
2018-06-29T08:55:22.231Z,24.90
2018-06-29T08:57:53.395Z,24.90
2018-06-29T09:00:23.767Z,24.90
2018-06-29T09:02:54.136Z,25.00
2018-06-29T09:05:24.527Z,25.00
2018-06-29T09:07:55.674Z,25.20
2018-06-29T09:10:25.991Z,25.20
2018-06-29T09:12:57.139Z,25.30
2018-06-29T09:18:11.736Z,25.00
2018-06-29T09:20:43.069Z,25.30
2018-06-29T09:23:13.439Z,25.30
2018-06-29T09:25:43.829Z,25.40
2018-06-29T09:28:14.960Z,25.40
2018-06-29T09:30:45.323Z,25.50
2018-06-29T09:33:15.723Z,25.50
2018-06-29T09:35:46.100Z,25.70
2018-06-29T09:38:19.478Z,25.60
2018-06-29T09:40:49.878Z,25.70
2018-06-29T09:43:20.255Z,25.70
2018-06-29T09:46:09.756Z,25.60
2018-06-29T09:48:40.159Z,25.60
2018-06-29T09:51:11.475Z,25.80
2018-06-29T09:53:41.868Z,25.90
2018-06-29T09:56:14.289Z,25.80
2018-06-29T09:58:44.663Z,25.90
2018-06-29T10:01:15.140Z,25.90
2018-06-29T10:03:51.563Z,25.90
2018-06-29T10:06:22.008Z,25.80
2018-06-29T10:09:12.461Z,26.10
2018-06-29T10:12:02.220Z,26.10
2018-06-29T10:14:32.640Z,26.30
2018-06-29T10:17:02.960Z,26.30
2018-06-29T10:19:34.094Z,26.30
2018-06-29T10:22:04.474Z,26.20
2018-06-29T10:24:34.817Z,26.30
2018-06-29T10:27:05.148Z,26.30
2018-06-29T10:29:35.514Z,26.40
2018-06-29T10:32:05.895Z,26.40
2018-06-29T10:34:36.281Z,26.50
2018-06-29T10:37:10.753Z,26.30
2018-06-29T10:39:41.160Z,26.50
2018-06-29T10:42:11.531Z,26.50
2018-06-29T10:44:44.021Z,26.50
2018-06-29T10:47:15.115Z,26.60
2018-06-29T10:49:45.491Z,26.60
2018-06-29T10:52:15.813Z,26.50
2018-06-29T10:54:46.199Z,26.40
2018-06-29T10:57:17.335Z,26.40
2018-06-29T10:59:47.702Z,26.60
2018-06-29T11:02:18.089Z,26.80
2018-06-29T11:04:48.399Z,27.00
2018-06-29T11:07:18.770Z,26.80
2018-06-29T11:09:51.960Z,26.90
2018-06-29T11:12:23.095Z,26.80
2018-06-29T11:14:53.472Z,26.70
2018-06-29T11:17:45.980Z,27.00
2018-06-29T11:20:17.150Z,27.10
2018-06-29T11:22:49.568Z,27.10
2018-06-29T11:25:19.959Z,27.00
2018-06-29T11:28:10.464Z,26.50
2018-06-29T11:31:02.286Z,26.50
2018-06-29T11:33:39.815Z,26.60
2018-06-29T11:36:10.230Z,26.80
2018-06-29T11:38:40.619Z,27.00
2018-06-29T11:41:10.989Z,26.80
2018-06-29T11:43:41.334Z,27.00
2018-06-29T11:46:11.699Z,27.30
2018-06-29T11:48:42.129Z,27.20
2018-06-29T11:51:12.481Z,27.20
2018-06-29T11:53:42.859Z,27.20
2018-06-29T11:56:13.298Z,27.40
2018-06-29T11:58:43.632Z,27.20
2018-06-29T12:01:13.999Z,27.10
2018-06-29T12:03:44.312Z,27.40
2018-06-29T12:06:14.704Z,27.50
2018-06-29T12:08:45.087Z,27.30
2018-06-29T12:11:15.463Z,27.50
2018-06-29T12:13:46.888Z,27.30
2018-06-29T12:16:17.520Z,27.40
2018-06-29T12:18:49.316Z,27.30
2018-06-29T12:21:19.731Z,27.30
2018-06-29T12:23:50.102Z,27.00
2018-06-29T12:26:20.477Z,27.10
2018-06-29T12:28:50.871Z,27.00
2018-06-29T12:31:21.248Z,27.30
2018-06-29T12:34:11.015Z,27.00
2018-06-29T12:36:41.375Z,27.20
2018-06-29T12:39:11.699Z,27.50
2018-06-29T12:41:42.088Z,27.30
2018-06-29T12:46:59.625Z,26.90
2018-06-29T12:49:31.015Z,26.90
2018-06-29T12:52:01.411Z,26.70
2018-06-29T12:54:31.799Z,26.50
2018-06-29T12:57:02.897Z,26.30
2018-06-29T12:59:40.541Z,26.30
2018-06-29T13:02:11.664Z,26.20
2018-06-29T13:04:42.047Z,26.20
2018-06-29T13:07:12.430Z,26.40
2018-06-29T13:09:42.796Z,26.40
2018-06-29T13:12:13.177Z,26.30
2018-06-29T13:14:43.573Z,26.30
2018-06-29T13:17:35.097Z,26.30
2018-06-29T13:20:27.671Z,26.00
2018-06-29T13:22:58.042Z,26.00
2018-06-29T13:25:28.417Z,26.00
2018-06-29T13:27:58.811Z,26.30
2018-06-29T13:30:34.302Z,26.60
2018-06-29T13:33:04.705Z,26.60
2018-06-29T13:35:37.932Z,26.70
2018-06-29T13:38:09.076Z,26.70
2018-06-29T13:40:40.233Z,26.40
2018-06-29T13:43:11.372Z,26.30
2018-06-29T13:45:42.517Z,26.30
2018-06-29T13:48:13.655Z,26.40
2018-06-29T13:50:44.977Z,26.50
2018-06-29T13:53:15.352Z,26.50
2018-06-29T13:55:45.750Z,26.60
2018-06-29T13:58:16.881Z,26.60
2018-06-29T14:00:47.275Z,26.60
2018-06-29T14:03:17.647Z,26.70
2018-06-29T14:05:48.799Z,26.60
2018-06-29T14:08:19.936Z,26.70
2018-06-29T14:10:51.144Z,26.70
2018-06-29T14:13:23.320Z,26.60
2018-06-29T14:15:54.385Z,27.00
2018-06-29T14:18:24.796Z,27.00
2018-06-29T14:20:55.848Z,27.40
2018-06-29T14:23:26.300Z,27.20
2018-06-29T14:26:00.728Z,27.10
2018-06-29T14:28:32.067Z,27.00
2018-06-29T14:31:03.199Z,27.00
2018-06-29T14:33:34.674Z,27.00
2018-06-29T14:36:04.995Z,26.90
2018-06-29T14:38:36.139Z,26.70
2018-06-29T14:41:07.302Z,26.90
2018-06-29T14:43:38.633Z,26.90
2018-06-29T14:46:09.018Z,26.80
2018-06-29T14:48:39.693Z,27.00
2018-06-29T14:51:13.102Z,26.80
2018-06-29T14:53:44.242Z,26.70
2018-06-29T14:56:14.653Z,26.70
2018-06-29T14:58:45.779Z,26.60
2018-06-29T15:01:16.149Z,26.60
2018-06-29T15:03:46.565Z,26.60
2018-06-29T15:06:16.942Z,26.70
2018-06-29T15:08:47.512Z,26.60
2018-06-29T15:11:21.664Z,26.80
2018-06-29T15:13:52.034Z,26.80
2018-06-29T15:16:22.416Z,26.90
2018-06-29T15:18:52.833Z,26.90
2018-06-29T15:21:25.619Z,26.90
2018-06-29T15:23:55.987Z,26.90
2018-06-29T15:26:26.378Z,26.90
2018-06-29T15:28:57.772Z,27.00
2018-06-29T15:31:28.201Z,27.00
2018-06-29T15:34:00.602Z,26.90
2018-06-29T15:36:31.730Z,26.50
2018-06-29T15:39:02.110Z,26.50
2018-06-29T15:41:51.977Z,26.50
2018-06-29T15:44:22.349Z,26.50
2018-06-29T15:46:53.758Z,26.80
2018-06-29T15:49:28.244Z,27.00
2018-06-29T15:51:59.391Z,27.00
2018-06-29T15:54:30.518Z,26.90
2018-06-29T15:57:01.695Z,26.80
2018-06-29T15:59:32.063Z,26.80
2018-06-29T16:02:02.426Z,26.60
2018-06-29T16:04:32.819Z,26.30
2018-06-29T16:07:03.188Z,26.30
2018-06-29T16:09:34.321Z,26.50
2018-06-29T16:12:05.486Z,26.60
2018-06-29T16:14:36.603Z,26.60
2018-06-29T16:17:07.740Z,26.80
2018-06-29T16:19:38.063Z,26.70
2018-06-29T16:22:09.198Z,26.60
2018-06-29T16:24:39.578Z,26.60
2018-06-29T16:30:03.376Z,26.40
2018-06-29T16:32:33.763Z,26.20
2018-06-29T16:35:04.891Z,26.20
2018-06-29T16:37:35.336Z,26.10
2018-06-29T16:40:05.645Z,26.20
2018-06-29T16:42:36.011Z,26.20
2018-06-29T16:45:06.378Z,26.10
2018-06-29T16:47:36.763Z,26.10
2018-06-29T16:50:07.902Z,25.90
2018-06-29T16:52:38.451Z,25.90
2018-06-29T16:55:08.839Z,26.00
2018-06-29T16:57:39.915Z,25.80
2018-06-29T17:00:10.527Z,25.80
2018-06-29T17:02:44.129Z,26.00
2018-06-29T17:05:14.498Z,26.00
2018-06-29T17:07:44.808Z,26.10
2018-06-29T17:10:15.212Z,26.10
2018-06-29T17:12:45.577Z,26.00
2018-06-29T17:15:21.084Z,26.00
2018-06-29T17:17:56.298Z,25.80
2018-06-29T17:20:26.691Z,25.80
2018-06-29T17:23:16.426Z,25.80
2018-06-29T17:25:46.806Z,25.90
2018-06-29T17:28:17.185Z,25.90
2018-06-29T17:30:47.547Z,25.90
2018-06-29T17:33:32.045Z,25.90
2018-06-29T17:35:50.282Z,25.90
2018-06-29T17:38:20.650Z,25.90
2018-06-29T17:40:51.036Z,25.90
2018-06-29T17:43:21.401Z,25.80
2018-06-29T17:45:51.769Z,25.70
2018-06-29T17:48:22.165Z,25.70
2018-06-29T17:50:58.654Z,25.70
2018-06-29T17:53:35.373Z,25.60
2018-06-29T17:56:06.510Z,25.50
2018-06-29T17:58:37.639Z,25.50
2018-06-29T18:01:08.023Z,25.50
2018-06-29T18:03:41.458Z,25.50
2018-06-29T18:06:11.822Z,25.50
2018-06-29T18:08:42.225Z,25.50
2018-06-29T18:11:12.588Z,25.60
2018-06-29T18:13:42.959Z,25.60
2018-06-29T18:16:13.361Z,25.50
2018-06-29T18:18:46.822Z,25.60
2018-06-29T18:21:20.216Z,25.60
2018-06-29T18:23:51.347Z,25.40
2018-06-29T18:26:21.716Z,25.40
2018-06-29T18:28:52.107Z,25.50
2018-06-29T18:31:22.569Z,25.50
2018-06-29T18:34:11.979Z,25.40
2018-06-29T18:36:45.322Z,25.40
2018-06-29T18:39:15.607Z,25.30
2018-06-29T18:41:45.990Z,25.40
2018-06-29T18:44:21.472Z,25.50
2018-06-29T18:46:51.859Z,25.40
2018-06-29T18:49:22.234Z,25.30
2018-06-29T18:51:52.604Z,25.30
2018-06-29T18:54:22.994Z,25.30
2018-06-29T18:56:54.119Z,25.20
2018-06-29T18:59:25.504Z,25.20
2018-06-29T19:01:55.895Z,25.20
2018-06-29T19:04:26.258Z,25.30
2018-06-29T19:06:56.631Z,25.30
2018-06-29T19:09:46.403Z,25.30
2018-06-29T19:12:19.557Z,25.40
2018-06-29T19:14:49.927Z,25.30
2018-06-29T19:17:25.443Z,25.40
2018-06-29T19:19:55.816Z,25.30
2018-06-29T19:22:26.196Z,25.20
2018-06-29T19:24:56.666Z,25.20
2018-06-29T19:27:27.037Z,25.20
2018-06-29T19:29:59.766Z,25.20
2018-06-29T19:32:33.835Z,25.10
2018-06-29T19:35:04.214Z,25.00
2018-06-29T19:37:34.561Z,25.00
2018-06-29T19:40:04.951Z,25.00
2018-06-29T19:42:56.744Z,24.90
2018-06-29T19:45:27.130Z,24.90
2018-06-29T19:47:57.503Z,24.90
2018-06-29T19:53:12.630Z,24.70
2018-06-29T19:55:48.980Z,24.70
2018-06-29T19:58:24.422Z,24.60
2018-06-29T20:01:00.631Z,24.50
2018-06-29T20:03:31.012Z,24.50
2018-06-29T20:06:01.382Z,24.50
2018-06-29T20:08:34.568Z,24.50
2018-06-29T20:11:07.645Z,24.40
2018-06-29T20:13:37.989Z,24.50
2018-06-29T20:16:08.370Z,24.40
2018-06-29T20:18:42.866Z,24.30
2018-06-29T20:21:13.244Z,24.30
2018-06-29T20:23:43.602Z,24.40
2018-06-29T20:26:14.777Z,24.40
2018-06-29T20:28:45.384Z,24.40
2018-06-29T20:31:19.188Z,24.20
2018-06-29T20:33:49.577Z,24.20
2018-06-29T20:36:19.952Z,24.20
2018-06-29T20:38:50.496Z,24.10
2018-06-29T20:41:40.024Z,24.20
2018-06-29T20:44:10.404Z,24.10
2018-06-29T20:46:43.706Z,24.10
2018-06-29T20:49:15.133Z,24.00
2018-06-29T20:51:45.497Z,24.10
2018-06-29T20:54:15.808Z,23.90
2018-06-29T20:56:49.269Z,23.90
2018-06-29T20:59:20.410Z,23.80
2018-06-29T21:01:51.537Z,23.80
2018-06-29T21:04:21.863Z,23.80
2018-06-29T21:06:55.074Z,23.80
2018-06-29T21:09:26.203Z,23.70
2018-06-29T21:11:56.599Z,23.70
2018-06-29T21:14:47.372Z,23.80
2018-06-29T21:17:20.228Z,23.80
2018-06-29T21:19:51.370Z,23.80
2018-06-29T21:22:22.514Z,23.80
2018-06-29T21:24:53.683Z,23.80
2018-06-29T21:27:26.763Z,23.80
2018-06-29T21:29:58.113Z,23.80
2018-06-29T21:32:31.994Z,23.80
2018-06-29T21:35:02.303Z,23.80
2018-06-29T21:37:32.671Z,23.80
2018-06-29T21:40:03.830Z,23.70
2018-06-29T21:42:34.266Z,23.70
2018-06-29T21:45:04.646Z,23.70
2018-06-29T21:47:35.095Z,23.70
2018-06-29T21:50:06.172Z,23.60
2018-06-29T21:52:39.648Z,23.60
2018-06-29T21:55:10.709Z,23.60
2018-06-29T21:57:42.881Z,23.60
2018-06-29T22:00:13.274Z,23.70
2018-06-29T22:02:44.418Z,23.60
2018-06-29T22:05:16.575Z,23.60
2018-06-29T22:07:47.744Z,23.50
2018-06-29T22:10:18.132Z,23.50
2018-06-29T22:12:48.435Z,23.40
2018-06-29T22:15:18.836Z,23.40
2018-06-29T22:17:49.207Z,23.40
2018-06-29T22:20:19.587Z,23.30
2018-06-29T22:22:49.976Z,23.40
2018-06-29T22:25:21.117Z,23.30
2018-06-29T22:27:52.528Z,23.30
2018-06-29T22:30:22.844Z,23.30
2018-06-29T22:32:53.216Z,23.30
2018-06-29T22:35:23.593Z,23.30
2018-06-29T22:37:55.024Z,23.30
2018-06-29T22:40:25.338Z,23.30
2018-06-29T22:42:57.167Z,23.10
2018-06-29T22:45:27.568Z,23.10
2018-06-29T22:47:57.950Z,23.20
2018-06-29T22:50:29.022Z,23.10
2018-06-29T22:52:59.419Z,23.10
2018-06-29T22:55:30.562Z,22.90
2018-06-29T22:58:01.705Z,23.00
2018-06-29T23:00:32.873Z,23.10
2018-06-29T23:03:03.253Z,23.10
2018-06-29T23:05:33.626Z,22.90
2018-06-29T23:08:04.024Z,22.90
2018-06-29T23:10:36.183Z,22.90
2018-06-29T23:13:06.562Z,22.90
2018-06-29T23:15:36.947Z,22.90
2018-06-29T23:18:07.316Z,22.90
2018-06-29T23:20:43.841Z,22.80
2018-06-29T23:23:14.977Z,22.70
2018-06-29T23:25:46.115Z,22.70
2018-06-29T23:28:16.519Z,22.70
2018-06-29T23:30:46.900Z,22.70
2018-06-29T23:33:17.215Z,22.60
2018-06-29T23:35:48.329Z,22.60
2018-06-29T23:38:18.698Z,22.60
2018-06-29T23:40:49.009Z,22.60
2018-06-29T23:43:20.458Z,22.50
2018-06-29T23:45:51.612Z,22.50
2018-06-29T23:48:21.989Z,22.50
2018-06-29T23:50:52.384Z,22.50
2018-06-29T23:53:24.807Z,22.50
2018-06-29T23:55:55.185Z,22.40
2018-06-29T23:58:26.598Z,22.40
